Time;durP1;ratioP1;P1;durP2;ratioP2;P2;SDS_P1;SDS_P2;PMS_P1;PMS_P2;Temp;Humidity;BMP_temperature;BMP_pressure;BME280_temperature;BME280_humidity;BME280_pressure;Samples;Min_cycle;Max_cycle;Signal;HPM_P1;HPM_P2
2021/09/10 00:01:58;;;;;;;15.80;8.30;;;20.30;99.90;;;;;;4894604;29;20047;-76
2021/09/10 00:04:24;;;;;;;17.35;8.80;;;20.40;99.90;;;;;;4910724;29;20040;-75
2021/09/10 00:06:50;;;;;;;24.75;9.40;;;20.30;99.90;;;;;;4911332;29;20028;-75
2021/09/10 00:09:16;;;;;;;20.27;9.07;;;20.20;99.90;;;;;;4911208;29;20036;-74
2021/09/10 00:11:42;;;;;;;19.33;9.05;;;20.10;99.90;;;;;;4910933;29;20029;-75
2021/09/10 04:43:33;;;;;;;42.25;17.52;;;18.70;99.90;;;;;;5072863;23;20057;-72
2021/09/10 04:45:59;;;;;;;58.60;20.15;;;18.70;99.90;;;;;;4925223;29;20052;-73
2021/09/10 04:48:27;;;;;;;40.58;18.58;;;18.70;99.90;;;;;;4922204;29;20291;-71
2021/09/10 04:50:53;;;;;;;42.38;16.77;;;18.70;99.90;;;;;;4917505;29;20075;-72
2021/09/10 04:53:18;;;;;;;37.97;17.27;;;18.60;99.90;;;;;;4919011;29;20040;-72
2021/09/10 04:55:44;;;;;;;40.65;18.27;;;18.60;99.90;;;;;;4913484;29;20544;-71
2021/09/10 04:58:09;;;;;;;44.35;17.70;;;18.70;99.90;;;;;;4915890;29;20033;-71
2021/09/10 05:00:35;;;;;;;45.17;19.20;;;18.60;99.90;;;;;;4917420;29;20519;-72
2021/09/10 05:03:00;;;;;;;42.35;18.20;;;18.60;99.90;;;;;;4919206;29;20044;-73
2021/09/10 05:05:26;;;;;;;49.33;19.63;;;18.60;99.90;;;;;;4916313;29;20068;-71
2021/09/10 05:07:56;;;;;;;34.55;16.52;;;18.60;99.90;;;;;;4923476;29;20033;-74
2021/09/10 05:10:22;;;;;;;37.53;18.00;;;18.70;99.90;;;;;;4917673;29;20084;-71
2021/09/10 05:12:48;;;;;;;49.75;17.90;;;18.60;99.90;;;;;;4909376;29;20037;-72
2021/09/10 05:15:13;;;;;;;47.92;19.25;;;18.70;99.90;;;;;;4917755;29;20086;-71
2021/09/10 05:17:39;;;;;;;36.85;18.25;;;18.60;99.90;;;;;;4924467;29;20039;-73
2021/09/10 05:20:07;;;;;;;39.17;19.08;;;18.70;99.90;;;;;;4916969;29;20037;-73
2021/09/10 05:22:39;;;;;;;39.40;17.70;;;18.70;99.90;;;;;;4909418;29;20044;-71
2021/09/10 05:25:07;;;;;;;44.28;19.02;;;18.60;99.90;;;;;;4909764;29;20028;-72
2021/09/10 05:27:33;;;;;;;43.67;18.50;;;18.70;99.90;;;;;;4910034;29;20021;-73
2021/09/10 05:29:59;;;;;;;40.33;19.52;;;18.60;99.90;;;;;;4909974;29;20397;-72
2021/09/10 05:32:25;;;;;;;38.85;18.05;;;18.60;99.90;;;;;;4909509;29;20044;-71
2021/09/10 05:34:51;;;;;;;37.50;17.27;;;18.60;99.90;;;;;;4918258;29;20036;-72
2021/09/10 05:37:16;;;;;;;44.35;18.52;;;18.60;99.90;;;;;;4913855;29;20036;-73
2021/09/10 05:39:42;;;;;;;46.33;17.67;;;18.60;99.90;;;;;;4913979;29;20054;-72
2021/09/10 05:42:08;;;;;;;36.08;17.10;;;18.60;99.90;;;;;;4925177;29;20047;-71
2021/09/10 05:44:33;;;;;;;36.53;16.98;;;18.60;99.90;;;;;;4927589;29;20052;-71
2021/09/10 05:47:00;;;;;;;37.92;17.85;;;18.60;99.90;;;;;;4922195;29;20511;-71
2021/09/10 05:49:25;;;;;;;32.53;14.57;;;18.50;99.90;;;;;;4912010;29;20044;-72
2021/09/10 05:51:51;;;;;;;43.95;16.63;;;18.60;99.90;;;;;;4919135;29;20127;-72
2021/09/10 05:54:16;;;;;;;36.25;15.95;;;18.50;99.90;;;;;;4927427;29;20035;-73
2021/09/10 05:56:42;;;;;;;29.45;14.38;;;18.50;99.90;;;;;;4926801;29;20598;-73
2021/09/10 05:59:07;;;;;;;39.92;15.63;;;18.50;99.90;;;;;;4927057;29;20110;-74
2021/09/10 06:01:33;;;;;;;28.17;13.60;;;18.50;99.90;;;;;;4927664;29;20056;-74
2021/09/10 06:03:59;;;;;;;25.17;12.65;;;18.50;99.90;;;;;;4927840;29;20048;-74
2021/09/10 06:06:25;;;;;;;27.92;13.57;;;18.50;99.90;;;;;;4910711;29;20044;-73
2021/09/10 06:08:51;;;;;;;31.35;12.23;;;18.50;99.90;;;;;;4927182;29;20032;-74
2021/09/10 06:11:16;;;;;;;23.20;11.55;;;18.60;99.90;;;;;;4910007;29;20036;-73
2021/09/10 06:13:42;;;;;;;23.75;11.80;;;18.50;99.90;;;;;;4908841;29;20032;-73
2021/09/10 06:16:08;;;;;;;22.48;11.07;;;18.50;99.90;;;;;;4907665;29;20037;-73
2021/09/10 06:18:34;;;;;;;20.63;10.45;;;18.50;99.90;;;;;;4918254;29;20028;-75
2021/09/10 06:21:02;;;;;;;26.40;11.93;;;18.50;99.90;;;;;;4927357;29;20092;-73
2021/09/10 06:23:28;;;;;;;30.58;12.18;;;18.50;99.90;;;;;;4911034;29;20040;-74
2021/09/10 06:25:54;;;;;;;31.80;12.25;;;18.50;99.90;;;;;;4910093;29;20084;-73
2021/09/10 06:28:19;;;;;;;28.10;12.07;;;18.50;99.90;;;;;;4912715;29;20081;-72
2021/09/10 06:30:45;;;;;;;19.63;9.85;;;18.60;99.90;;;;;;4896125;29;20047;-70
2021/09/10 06:33:10;;;;;;;24.83;7.00;;;18.50;99.90;;;;;;4926706;29;20388;-73
2021/09/10 06:35:36;;;;;;;8.00;3.63;;;18.40;99.90;;;;;;4931642;29;20520;-70
2021/09/10 06:38:03;;;;;;;7.88;3.85;;;18.40;99.90;;;;;;4931965;29;20032;-74
2021/09/10 06:40:28;;;;;;;4.88;2.67;;;18.30;99.90;;;;;;4931715;29;20526;-71
2021/09/10 06:42:54;;;;;;;5.82;3.25;;;18.30;99.90;;;;;;4930747;29;20425;-72
2021/09/10 06:45:22;;;;;;;6.53;3.95;;;18.20;99.90;;;;;;4931055;29;20060;-72
2021/09/10 06:47:48;;;;;;;8.52;3.50;;;18.10;99.90;;;;;;4930556;29;20027;-73
2021/09/10 06:50:13;;;;;;;8.77;3.88;;;18.10;99.90;;;;;;4916785;29;20396;-74
2021/09/10 06:52:41;;;;;;;14.60;4.95;;;18.10;99.90;;;;;;4920007;29;20079;-77
2021/09/10 06:55:09;;;;;;;9.00;4.07;;;18.00;99.90;;;;;;4900212;29;20036;-78
2021/09/10 06:57:35;;;;;;;9.13;4.57;;;18.00;99.90;;;;;;4901873;29;20038;-76
2021/09/10 07:00:03;;;;;;;16.42;4.13;;;18.00;99.90;;;;;;4922779;29;20032;-76
2021/09/10 07:02:28;;;;;;;18.65;4.82;;;18.00;99.90;;;;;;4921378;29;20040;-74
2021/09/10 07:04:54;;;;;;;26.38;5.93;;;17.90;99.90;;;;;;4929664;29;20084;-74
2021/09/10 07:07:19;;;;;;;40.33;7.97;;;18.00;99.90;;;;;;4930495;29;20032;-73
2021/09/10 07:09:46;;;;;;;15.82;4.80;;;17.90;99.90;;;;;;4910057;29;20029;-77
2021/09/10 07:12:11;;;;;;;26.83;5.97;;;17.80;99.90;;;;;;4910167;29;20058;-75
2021/09/10 07:14:37;;;;;;;8.68;4.35;;;17.90;99.90;;;;;;4903051;29;20028;-74
2021/09/10 07:17:03;;;;;;;7.20;3.95;;;17.80;99.90;;;;;;4919996;29;20028;-76
2021/09/10 07:19:29;;;;;;;12.45;4.57;;;17.90;99.90;;;;;;4927247;29;20028;-75
2021/09/10 07:21:55;;;;;;;14.25;4.18;;;17.90;99.90;;;;;;4922701;29;20043;-78
2021/09/10 07:24:20;;;;;;;9.82;3.90;;;17.90;99.90;;;;;;4910820;29;20032;-77
2021/09/10 07:26:51;;;;;;;11.50;5.07;;;17.90;99.90;;;;;;4926125;29;20122;-82
2021/09/10 07:29:19;;;;;;;11.10;5.00;;;17.90;99.90;;;;;;4910317;29;20104;-75
2021/09/10 07:31:45;;;;;;;16.27;5.63;;;17.90;99.90;;;;;;4911649;29;20028;-74
2021/09/10 07:34:11;;;;;;;11.27;6.15;;;17.70;99.90;;;;;;4927638;29;20025;-77
2021/09/10 07:36:37;;;;;;;18.80;6.75;;;17.80;99.90;;;;;;4912676;29;20079;-76
2021/09/10 07:39:03;;;;;;;20.17;8.32;;;17.70;99.90;;;;;;4918116;29;20376;-76
2021/09/10 07:41:28;;;;;;;21.38;7.95;;;17.80;99.90;;;;;;4917801;29;20033;-75
2021/09/10 07:43:55;;;;;;;18.38;7.53;;;17.70;99.90;;;;;;4919743;29;20083;-77
2021/09/10 07:46:20;;;;;;;15.75;7.25;;;17.70;99.90;;;;;;4918432;29;20044;-74
2021/09/10 07:48:46;;;;;;;16.33;7.90;;;17.70;99.90;;;;;;4920429;29;20034;-77
2021/09/10 07:51:14;;;;;;;17.25;8.43;;;17.60;99.90;;;;;;4929255;29;20032;-77
2021/09/10 07:53:40;;;;;;;29.00;10.02;;;17.70;99.90;;;;;;4929927;29;20036;-77
2021/09/10 07:56:05;;;;;;;28.25;9.57;;;17.70;99.90;;;;;;4930284;29;20060;-76
2021/09/10 07:58:32;;;;;;;34.22;11.00;;;17.70;99.90;;;;;;4929684;29;20072;-77
2021/09/10 08:01:00;;;;;;;22.40;11.00;;;17.60;99.90;;;;;;4930389;29;20032;-77
2021/09/10 08:03:27;;;;;;;23.13;10.60;;;17.60;99.90;;;;;;4930108;29;20068;-76
2021/09/10 08:05:54;;;;;;;30.55;11.35;;;17.60;99.90;;;;;;4912886;29;20072;-75
2021/09/10 08:08:20;;;;;;;29.38;11.52;;;17.70;99.90;;;;;;4929738;29;20146;-75
2021/09/10 08:10:45;;;;;;;26.02;10.90;;;17.60;99.90;;;;;;4913110;29;20035;-75
2021/09/10 08:13:12;;;;;;;22.70;11.13;;;17.70;99.90;;;;;;4929146;29;20475;-75
2021/09/10 08:15:38;;;;;;;30.05;11.50;;;17.70;99.90;;;;;;4926181;29;20024;-75
2021/09/10 08:18:04;;;;;;;24.20;9.63;;;17.70;99.90;;;;;;4917852;29;20029;-77
2021/09/10 08:20:31;;;;;;;19.90;9.63;;;17.70;99.90;;;;;;4911862;29;20020;-74
2021/09/10 08:22:57;;;;;;;20.27;10.02;;;17.80;99.90;;;;;;4927267;29;20052;-76
2021/09/10 08:25:22;;;;;;;25.08;9.60;;;17.80;99.90;;;;;;4911907;29;20039;-75
2021/09/10 08:27:48;;;;;;;20.02;8.98;;;17.80;99.90;;;;;;4929205;29;20063;-73
2021/09/10 08:30:14;;;;;;;26.35;9.60;;;17.70;99.90;;;;;;4929266;29;20020;-75
2021/09/10 08:32:49;;;;;;;18.67;8.88;;;17.80;99.90;;;;;;4929737;29;20063;-75
2021/09/10 08:35:15;;;;;;;16.98;8.70;;;17.80;99.90;;;;;;4911732;29;20051;-74
2021/09/10 08:37:43;;;;;;;17.58;8.65;;;17.80;99.90;;;;;;4927170;29;20036;-74
2021/09/10 08:40:09;;;;;;;34.15;10.13;;;17.90;99.90;;;;;;4894761;29;20101;-74
2021/09/10 08:42:35;;;;;;;18.20;8.85;;;17.90;99.90;;;;;;4922331;29;20048;-76
2021/09/10 08:45:03;;;;;;;17.38;9.98;;;17.90;99.90;;;;;;4916863;29;20066;-74
2021/09/10 08:47:29;;;;;;;24.17;8.65;;;18.00;99.90;;;;;;4922826;29;20044;-76
2021/09/10 08:49:54;;;;;;;16.73;9.52;;;18.00;99.90;;;;;;4922749;29;20484;-75
2021/09/10 08:52:21;;;;;;;16.77;9.80;;;18.00;99.90;;;;;;4923189;29;20496;-75
2021/09/10 08:54:46;;;;;;;20.60;10.43;;;18.00;99.90;;;;;;4917857;29;20107;-74
2021/09/10 08:57:12;;;;;;;19.73;9.23;;;18.10;99.90;;;;;;4916180;29;20060;-75
2021/09/10 08:59:38;;;;;;;15.02;8.55;;;18.10;99.90;;;;;;4907193;29;20480;-74
2021/09/10 09:02:03;;;;;;;17.63;8.38;;;18.10;99.90;;;;;;4921878;29;20105;-74
2021/09/10 09:04:31;;;;;;;16.38;8.75;;;18.10;99.90;;;;;;4909889;29;20148;-75
2021/09/10 09:06:58;;;;;;;15.20;8.57;;;18.20;99.90;;;;;;4911414;29;20040;-74
2021/09/10 09:09:42;;;;;;;17.00;8.85;;;18.30;99.90;;;;;;4901417;29;20162;-75
2021/09/10 09:12:15;;;;;;;22.92;9.07;;;18.30;99.90;;;;;;4920044;29;20385;-76
2021/09/10 09:14:46;;;;;;;17.88;7.65;;;18.30;99.90;;;;;;4927851;29;20044;-75
2021/09/10 09:17:41;;;;;;;13.82;8.00;;;18.40;99.90;;;;;;4924664;29;20025;-73
2021/09/10 09:20:17;;;;;;;17.55;8.35;;;18.40;99.90;;;;;;4925565;29;20036;-74
2021/09/10 09:22:53;;;;;;;17.65;8.23;;;18.40;99.90;;;;;;4912451;29;20085;-73
2021/09/10 09:25:21;;;;;;;13.77;7.85;;;18.40;99.90;;;;;;4927976;29;20075;-74
2021/09/10 09:27:47;;;;;;;15.90;7.97;;;18.50;99.90;;;;;;4928820;29;20027;-73
2021/09/10 09:30:13;;;;;;;16.80;8.48;;;18.50;99.90;;;;;;4911127;29;20062;-74
2021/09/10 09:32:48;;;;;;;19.98;8.30;;;18.60;99.90;;;;;;4928540;29;20118;-75
2021/09/10 09:35:14;;;;;;;16.33;7.80;;;18.70;99.90;;;;;;4928585;29;20064;-74
2021/09/10 09:37:40;;;;;;;18.85;8.07;;;18.70;99.90;;;;;;4928160;29;20063;-74
2021/09/10 09:40:07;;;;;;;16.98;9.18;;;18.70;99.90;;;;;;4928624;29;20028;-75
2021/09/10 09:42:35;;;;;;;16.92;8.60;;;18.70;99.90;;;;;;4928565;29;20052;-74
2021/09/10 09:45:23;;;;;;;15.43;7.88;;;18.80;99.90;;;;;;4928450;29;20048;-75
2021/09/10 09:47:48;;;;;;;19.05;9.35;;;18.80;99.90;;;;;;4929108;29;20044;-75
2021/09/10 09:50:17;;;;;;;16.67;8.15;;;18.90;99.90;;;;;;4928591;29;20032;-73
2021/09/10 09:52:44;;;;;;;15.38;9.00;;;18.90;99.90;;;;;;4928176;29;20028;-73
2021/09/10 09:55:12;;;;;;;16.92;8.30;;;19.00;99.90;;;;;;4928439;29;20052;-73
2021/09/10 09:57:39;;;;;;;19.30;9.20;;;19.00;99.90;;;;;;4927933;29;20028;-73
2021/09/10 10:00:06;;;;;;;19.58;9.85;;;19.10;99.90;;;;;;4928101;29;20035;-73
2021/09/10 10:02:34;;;;;;;14.90;8.63;;;19.20;99.90;;;;;;4928306;29;20044;-73
2021/09/10 10:05:00;;;;;;;18.95;9.85;;;19.30;99.90;;;;;;4928357;29;20032;-74
2021/09/10 10:07:43;;;;;;;21.45;9.23;;;19.30;99.90;;;;;;4928165;29;20043;-73
2021/09/10 10:10:12;;;;;;;17.27;8.63;;;19.40;99.90;;;;;;4928255;29;20028;-74
2021/09/10 10:12:40;;;;;;;13.20;8.20;;;19.50;99.90;;;;;;4927931;29;20028;-74
2021/09/10 10:15:25;;;;;;;14.73;7.82;;;19.50;99.90;;;;;;4911210;29;20396;-74
2021/09/10 10:17:53;;;;;;;19.63;7.53;;;19.50;99.90;;;;;;4927904;29;20029;-74
2021/09/10 10:20:44;;;;;;;13.05;7.38;;;19.60;99.90;;;;;;4928027;29;20560;-73
2021/09/10 10:23:41;;;;;;;10.25;5.97;;;19.60;99.90;;;;;;4915145;29;20199;-74
2021/09/10 10:26:32;;;;;;;8.80;6.00;;;19.60;99.90;;;;;;4927845;29;20039;-75
2021/09/10 10:29:08;;;;;;;13.63;6.80;;;19.70;99.90;;;;;;4928300;29;20493;-73
2021/09/10 10:31:55;;;;;;;8.82;5.70;;;19.70;99.90;;;;;;4927956;29;20036;-74
2021/09/10 10:34:21;;;;;;;15.82;6.55;;;19.80;99.90;;;;;;4927774;29;20035;-75
2021/09/10 10:36:47;;;;;;;10.20;4.75;;;20.00;99.90;;;;;;4928031;29;20033;-73
2021/09/10 10:39:14;;;;;;;8.20;4.80;;;20.10;99.90;;;;;;4927675;29;20056;-75
2021/09/10 10:41:47;;;;;;;8.65;4.68;;;20.10;99.90;;;;;;4927701;29;20032;-76
2021/09/10 10:44:35;;;;;;;11.02;5.65;;;20.00;99.90;;;;;;4927534;29;20080;-75
2021/09/10 10:47:05;;;;;;;10.23;5.10;;;20.20;99.90;;;;;;4927686;29;20095;-77
2021/09/10 10:49:32;;;;;;;12.43;5.35;;;20.30;99.90;;;;;;4910957;29;20043;-77
2021/09/10 10:51:57;;;;;;;10.02;5.28;;;20.30;99.90;;;;;;4927985;29;20107;-78
2021/09/10 10:54:30;;;;;;;11.07;5.47;;;20.40;99.90;;;;;;4927375;29;20032;-76
2021/09/10 10:56:59;;;;;;;19.80;7.00;;;20.40;99.90;;;;;;4910988;29;20095;-74
2021/09/10 10:59:25;;;;;;;13.60;5.70;;;20.50;99.90;;;;;;4927708;29;20040;-75
2021/09/10 11:02:17;;;;;;;12.07;5.85;;;20.60;99.90;;;;;;4910204;29;20047;-74
2021/09/10 11:04:45;;;;;;;9.32;5.35;;;20.60;99.90;;;;;;4927785;29;20028;-75
2021/09/10 11:07:12;;;;;;;17.60;6.97;;;20.70;99.90;;;;;;4927336;29;20028;-74
2021/09/10 11:09:38;;;;;;;14.40;7.05;;;20.80;99.90;;;;;;4927345;29;20362;-75
2021/09/10 11:12:09;;;;;;;15.63;7.68;;;20.80;99.90;;;;;;4913068;29;20115;-75
2021/09/10 11:14:38;;;;;;;20.10;9.70;;;20.80;99.90;;;;;;4930809;29;20032;-75
2021/09/10 11:17:14;;;;;;;17.33;9.35;;;20.70;99.90;;;;;;4931341;29;20020;-76
2021/09/10 11:19:47;;;;;;;17.45;9.52;;;20.70;99.90;;;;;;4930882;29;20551;-76
2021/09/10 11:22:14;;;;;;;15.73;9.07;;;20.70;99.90;;;;;;4930688;29;20191;-76
2021/09/10 11:24:41;;;;;;;14.40;8.60;;;20.70;99.90;;;;;;4913941;29;20044;-76
2021/09/10 11:27:26;;;;;;;17.50;8.88;;;20.80;99.90;;;;;;4931229;29;20074;-76
2021/09/10 11:29:52;;;;;;;12.88;7.65;;;20.80;99.90;;;;;;4930761;29;20079;-75
2021/09/10 11:32:28;;;;;;;15.10;7.65;;;20.80;99.90;;;;;;4930944;29;20453;-75
2021/09/10 11:34:54;;;;;;;17.17;7.47;;;20.80;99.90;;;;;;4930719;29;20076;-75
2021/09/10 11:37:27;;;;;;;14.73;6.30;;;20.80;99.90;;;;;;4913754;29;20043;-75
2021/09/10 11:39:54;;;;;;;10.98;5.88;;;20.90;99.90;;;;;;4913639;29;20465;-74
2021/09/10 11:42:34;;;;;;;11.07;5.60;;;20.80;99.90;;;;;;4930198;29;20099;-75
2021/09/10 11:45:07;;;;;;;12.90;5.70;;;20.80;99.90;;;;;;4930553;29;20052;-75
2021/09/10 11:47:33;;;;;;;8.38;4.93;;;20.80;99.90;;;;;;4930822;29;20021;-78
2021/09/10 11:50:05;;;;;;;11.27;5.07;;;20.90;99.90;;;;;;4930377;29;20028;-76
2021/09/10 11:52:35;;;;;;;14.80;5.47;;;20.90;99.90;;;;;;4930687;29;20036;-75
2021/09/10 11:55:12;;;;;;;11.68;5.90;;;20.90;99.90;;;;;;4913550;29;20035;-76
2021/09/10 11:57:40;;;;;;;10.27;5.22;;;21.00;99.90;;;;;;4930001;29;20029;-75
2021/09/10 12:00:08;;;;;;;11.57;5.97;;;21.00;99.90;;;;;;4912666;29;20060;-77
2021/09/10 12:02:33;;;;;;;10.43;5.22;;;21.10;99.90;;;;;;4923861;29;20040;-77
2021/09/10 12:05:01;;;;;;;11.48;4.60;;;21.10;99.90;;;;;;4913986;29;20061;-75
2021/09/10 12:07:30;;;;;;;10.25;4.97;;;21.20;99.90;;;;;;4924146;29;20127;-76
2021/09/10 12:09:56;;;;;;;9.35;4.47;;;21.30;99.90;;;;;;4929364;29;20043;-75
2021/09/10 12:12:26;;;;;;;10.02;4.50;;;21.40;99.90;;;;;;4929456;29;20036;-77
2021/09/10 12:15:01;;;;;;;8.35;4.57;;;21.50;99.90;;;;;;4929621;29;20028;-77
2021/09/10 12:17:36;;;;;;;5.43;3.70;;;21.60;99.90;;;;;;4912518;29;20095;-77
2021/09/10 12:20:09;;;;;;;7.82;4.47;;;21.70;99.90;;;;;;4929005;29;20068;-75
2021/09/10 12:22:35;;;;;;;6.43;3.72;;;21.70;99.90;;;;;;4908311;29;20529;-77
2021/09/10 12:25:23;;;;;;;7.30;3.85;;;21.70;99.90;;;;;;4910440;29;20088;-79
2021/09/10 12:28:02;;;;;;;9.38;3.58;;;21.90;99.90;;;;;;4911664;29;20044;-78
2021/09/10 12:30:30;;;;;;;6.43;3.28;;;21.90;99.90;;;;;;4929550;29;20046;-76
2021/09/10 12:32:57;;;;;;;13.15;5.03;;;22.00;99.90;;;;;;4908107;29;20067;-77
2021/09/10 12:35:24;;;;;;;9.50;4.68;;;22.10;99.90;;;;;;4928428;29;20036;-75
2021/09/10 12:38:04;;;;;;;14.25;5.03;;;22.10;99.90;;;;;;4926206;29;20055;-75
2021/09/10 12:40:40;;;;;;;17.17;6.72;;;22.20;99.90;;;;;;4920731;29;20047;-75
2021/09/10 12:43:07;;;;;;;13.02;6.30;;;22.30;99.90;;;;;;4926339;29;20047;-78
2021/09/10 12:45:33;;;;;;;11.52;6.18;;;22.40;99.90;;;;;;4926728;29;20052;-77
2021/09/10 12:48:00;;;;;;;10.35;5.93;;;22.50;99.90;;;;;;4912153;29;20761;-78
2021/09/10 12:50:28;;;;;;;9.32;5.00;;;22.80;99.90;;;;;;4925150;29;20405;-74
2021/09/10 12:52:53;;;;;;;17.25;7.88;;;23.00;99.90;;;;;;4916324;29;20119;-75
2021/09/10 12:55:23;;;;;;;12.88;7.10;;;23.30;99.90;;;;;;4928527;29;20047;-75
2021/09/10 12:57:49;;;;;;;21.65;8.00;;;23.60;99.90;;;;;;4898692;29;20095;-75
2021/09/10 13:00:16;;;;;;;20.50;7.43;;;23.90;99.90;;;;;;4917936;29;20032;-75
2021/09/10 13:02:42;;;;;;;22.40;8.88;;;24.10;99.90;;;;;;4929142;29;20465;-75
2021/09/10 13:05:09;;;;;;;17.40;8.40;;;24.40;99.90;;;;;;4929280;29;20032;-73
2021/09/10 13:07:35;;;;;;;16.25;8.63;;;24.40;99.90;;;;;;4927361;29;20030;-76
2021/09/10 13:10:02;;;;;;;16.77;8.68;;;24.40;99.90;;;;;;4902808;29;20033;-76
2021/09/10 13:12:27;;;;;;;26.65;9.70;;;24.40;99.90;;;;;;4926426;29;20499;-76
2021/09/10 13:14:53;;;;;;;19.63;8.95;;;24.40;99.90;;;;;;4928403;29;20036;-73
2021/09/10 13:17:21;;;;;;;16.50;8.63;;;24.50;99.90;;;;;;4917891;29;20068;-74
2021/09/10 13:19:47;;;;;;;18.80;8.23;;;24.70;99.90;;;;;;4919524;29;20140;-75
2021/09/10 13:22:13;;;;;;;19.95;9.52;;;24.70;99.90;;;;;;4919232;29;20512;-76
2021/09/10 13:24:43;;;;;;;17.60;8.82;;;24.80;99.90;;;;;;4922770;29;20032;-73
2021/09/10 13:27:10;;;;;;;21.63;9.70;;;24.90;99.90;;;;;;4908366;29;20064;-76
2021/09/10 13:29:36;;;;;;;18.17;8.35;;;24.90;99.90;;;;;;4914491;29;20023;-76
2021/09/10 13:32:03;;;;;;;20.25;8.95;;;25.00;99.90;;;;;;4911875;29;20386;-73
2021/09/10 13:34:33;;;;;;;17.90;8.68;;;25.10;99.90;;;;;;4908743;29;20036;-77
2021/09/10 13:36:59;;;;;;;17.63;9.50;;;25.20;99.90;;;;;;4909765;29;20032;-75
2021/09/10 13:39:25;;;;;;;19.00;8.90;;;25.10;99.90;;;;;;4910604;29;20043;-76
2021/09/10 13:41:53;;;;;;;18.50;8.52;;;25.10;99.90;;;;;;4910813;29;20043;-77
2021/09/10 13:44:19;;;;;;;16.48;8.68;;;25.10;99.90;;;;;;4923225;29;20050;-74
2021/09/10 13:46:45;;;;;;;26.63;8.68;;;25.20;99.90;;;;;;4928385;29;20036;-74
2021/09/10 13:49:12;;;;;;;18.40;9.27;;;25.20;99.90;;;;;;4910955;29;20104;-75
2021/09/10 13:51:37;;;;;;;17.60;9.18;;;25.40;99.90;;;;;;4927973;29;20024;-76
2021/09/10 13:54:03;;;;;;;14.35;8.73;;;25.60;99.90;;;;;;4928406;29;20492;-75
2021/09/10 13:56:29;;;;;;;16.63;9.15;;;25.70;99.90;;;;;;4910473;29;20043;-75
2021/09/10 13:58:56;;;;;;;17.35;8.63;;;25.80;99.90;;;;;;4921267;29;20078;-75
2021/09/10 14:01:22;;;;;;;16.05;8.40;;;26.00;99.90;;;;;;4914484;29;20606;-75
2021/09/10 14:03:48;;;;;;;18.40;9.02;;;26.40;99.90;;;;;;4908843;29;20504;-76
2021/09/10 14:06:13;;;;;;;18.80;8.50;;;26.70;99.90;;;;;;4909373;29;20036;-73
2021/09/10 14:08:39;;;;;;;15.13;8.60;;;26.90;99.90;;;;;;4892440;29;20033;-79
2021/09/10 14:11:04;;;;;;;13.15;7.93;;;27.10;99.90;;;;;;4909043;29;20033;-76
2021/09/10 14:13:31;;;;;;;17.20;8.75;;;27.30;99.90;;;;;;4909880;29;20039;-74
2021/09/10 14:15:57;;;;;;;16.15;8.95;;;27.50;99.90;;;;;;4909650;29;20085;-77
2021/09/10 14:18:23;;;;;;;14.90;8.60;;;27.60;99.90;;;;;;4925684;29;20032;-76
2021/09/10 14:20:49;;;;;;;15.02;8.20;;;27.70;99.90;;;;;;4928328;29;20032;-76
2021/09/10 14:23:15;;;;;;;15.45;7.78;;;27.90;99.90;;;;;;4926513;29;20047;-78
2021/09/10 14:25:41;;;;;;;13.75;7.43;;;28.00;99.90;;;;;;4927873;29;20055;-78
2021/09/10 14:28:07;;;;;;;13.27;7.95;;;28.30;99.90;;;;;;4927939;29;20044;-74
2021/09/10 14:30:33;;;;;;;16.23;8.25;;;28.70;99.90;;;;;;4922405;29;20032;-76
2021/09/10 14:32:59;;;;;;;14.02;7.57;;;29.00;99.90;;;;;;4919427;29;20048;-77
2021/09/10 14:35:24;;;;;;;12.20;7.72;;;29.30;99.90;;;;;;4911601;29;20033;-75
2021/09/10 14:37:52;;;;;;;15.98;8.30;;;29.50;99.90;;;;;;4907310;29;20024;-75
2021/09/10 14:40:18;;;;;;;17.60;7.97;;;29.70;99.90;;;;;;4919548;29;20028;-74
2021/09/10 14:42:44;;;;;;;14.57;7.03;;;29.70;99.90;;;;;;4927303;29;20115;-75
2021/09/10 14:45:10;;;;;;;14.50;6.90;;;29.50;99.90;;;;;;4910017;29;20052;-75
2021/09/10 14:47:36;;;;;;;15.15;7.80;;;29.30;99.90;;;;;;4914252;29;20052;-77
2021/09/10 14:50:04;;;;;;;13.90;7.40;;;29.30;99.90;;;;;;4914859;29;20056;-76
2021/09/10 14:52:30;;;;;;;14.82;8.23;;;29.40;99.90;;;;;;4930936;29;20476;-74
2021/09/10 14:54:55;;;;;;;15.60;8.30;;;29.40;99.90;;;;;;4930909;29;20035;-74
2021/09/10 14:57:21;;;;;;;14.82;7.95;;;28.80;99.90;;;;;;4931343;29;20032;-76
2021/09/10 15:00:00;;;;;;;16.27;7.35;;;28.40;99.90;;;;;;4927692;29;20489;-76
2021/09/10 15:02:26;;;;;;;15.93;8.43;;;28.40;99.90;;;;;;4895349;29;20055;-75
2021/09/10 15:04:52;;;;;;;12.13;7.22;;;28.60;99.90;;;;;;4911565;29;20048;-76
2021/09/10 15:07:17;;;;;;;15.85;7.80;;;28.70;99.90;;;;;;4911808;29;20033;-78
2021/09/10 15:09:43;;;;;;;14.88;7.60;;;28.40;99.90;;;;;;4912473;29;20070;-76
2021/09/10 15:12:32;;;;;;;13.63;7.53;;;27.90;99.90;;;;;;4912208;29;20036;-75
2021/09/10 15:14:58;;;;;;;13.18;7.57;;;27.40;99.90;;;;;;4930258;29;20135;-76
2021/09/10 15:17:24;;;;;;;16.40;7.88;;;26.80;99.90;;;;;;4930133;29;20123;-75
2021/09/10 15:19:49;;;;;;;17.50;7.15;;;26.40;99.90;;;;;;4930236;29;20028;-75
2021/09/10 15:22:15;;;;;;;18.08;7.55;;;26.00;99.90;;;;;;4923286;29;20064;-76
2021/09/10 15:24:41;;;;;;;15.98;8.23;;;25.70;99.90;;;;;;4937429;29;20032;-76
2021/09/10 15:27:07;;;;;;;14.68;6.95;;;25.30;99.90;;;;;;4896959;29;20092;-75
2021/09/10 15:29:34;;;;;;;24.27;9.00;;;25.10;99.90;;;;;;4911990;29;20028;-76
2021/09/10 15:32:02;;;;;;;13.52;7.13;;;24.90;99.90;;;;;;4911924;29;20025;-76
2021/09/10 15:34:27;;;;;;;11.70;6.68;;;24.70;99.90;;;;;;4911839;29;20046;-79
2021/09/10 15:36:53;;;;;;;14.43;6.78;;;24.50;99.90;;;;;;4915394;29;20036;-74
2021/09/10 15:39:19;;;;;;;14.40;7.78;;;24.40;99.90;;;;;;4924756;29;20039;-76
2021/09/10 15:41:45;;;;;;;19.20;7.88;;;24.30;99.90;;;;;;4917976;29;20044;-75
2021/09/10 15:44:11;;;;;;;10.25;6.28;;;24.20;99.90;;;;;;4914038;29;20059;-76
2021/09/10 15:46:37;;;;;;;14.70;6.95;;;24.10;99.90;;;;;;4924486;29;20040;-76
2021/09/10 15:49:04;;;;;;;10.15;5.97;;;24.00;99.90;;;;;;4923217;29;20146;-75
2021/09/10 15:51:30;;;;;;;13.70;7.10;;;23.90;99.90;;;;;;4926153;29;20039;-75
2021/09/10 15:53:56;;;;;;;11.77;6.30;;;23.90;99.90;;;;;;4919381;29;20067;-76
2021/09/10 15:56:24;;;;;;;11.45;6.03;;;23.90;99.90;;;;;;4899873;29;20033;-79
2021/09/10 15:58:50;;;;;;;11.07;6.57;;;23.80;99.90;;;;;;4929631;29;20036;-77
2021/09/10 16:01:18;;;;;;;13.88;6.82;;;23.70;99.90;;;;;;4907364;29;20033;-78
2021/09/10 16:03:43;;;;;;;11.80;6.57;;;23.70;99.90;;;;;;4917856;29;20063;-77
2021/09/10 16:06:09;;;;;;;14.95;7.72;;;23.60;99.90;;;;;;4910961;29;20040;-77
2021/09/10 16:08:35;;;;;;;9.02;4.85;;;23.50;99.90;;;;;;4909909;29;20033;-76
2021/09/10 16:11:01;;;;;;;13.25;5.03;;;23.40;99.90;;;;;;4911035;29;20029;-75
2021/09/10 16:13:27;;;;;;;8.23;3.65;;;23.20;99.90;;;;;;4909689;29;20036;-78
2021/09/10 16:15:52;;;;;;;4.95;3.30;;;22.90;99.90;;;;;;4911157;29;20068;-76
2021/09/10 16:18:18;;;;;;;6.82;3.10;;;22.50;99.90;;;;;;4910950;29;20053;-75
2021/09/10 16:20:44;;;;;;;3.60;1.85;;;22.20;99.90;;;;;;4911213;29;20036;-76
2021/09/10 16:23:10;;;;;;;2.88;1.92;;;22.10;99.90;;;;;;4915650;29;20053;-75
2021/09/10 16:25:36;;;;;;;6.38;1.98;;;21.90;99.90;;;;;;4915601;29;20048;-76
2021/09/10 16:28:03;;;;;;;4.75;2.50;;;21.70;99.90;;;;;;4916937;29;20115;-77
2021/09/10 16:30:29;;;;;;;2.92;1.63;;;21.50;99.90;;;;;;4909352;29;20035;-77
2021/09/10 16:32:55;;;;;;;2.60;1.50;;;21.30;99.90;;;;;;4906772;29;20036;-75
2021/09/10 16:35:27;;;;;;;7.70;1.58;;;21.10;99.90;;;;;;4910506;29;20064;-76
2021/09/10 16:37:53;;;;;;;2.90;1.60;;;21.10;99.90;;;;;;4893208;29;20047;-74
2021/09/10 16:40:20;;;;;;;2.72;1.23;;;21.00;99.90;;;;;;4910611;29;20029;-72
2021/09/10 16:42:47;;;;;;;3.65;2.00;;;20.90;99.90;;;;;;4909738;29;20048;-74
2021/09/10 16:45:13;;;;;;;2.53;1.58;;;20.70;99.90;;;;;;4909800;29;20065;-76
2021/09/10 16:47:39;;;;;;;4.47;1.90;;;20.50;99.90;;;;;;4910300;29;20048;-76
2021/09/10 16:50:05;;;;;;;3.22;2.00;;;20.40;99.90;;;;;;4909743;29;20024;-77
2021/09/10 16:52:31;;;;;;;3.90;2.10;;;20.30;99.90;;;;;;4910239;29;20044;-79
2021/09/10 16:54:57;;;;;;;6.88;2.28;;;20.20;99.90;;;;;;4921286;29;20040;-81
2021/09/10 16:57:23;;;;;;;2.55;1.70;;;20.20;99.90;;;;;;4898155;29;20032;-78
2021/09/10 16:59:48;;;;;;;3.20;2.10;;;20.10;99.90;;;;;;4906920;29;20088;-77
2021/09/10 17:02:16;;;;;;;2.72;1.63;;;20.20;99.90;;;;;;4916388;29;20032;-79
2021/09/10 17:04:43;;;;;;;3.10;1.73;;;20.10;99.90;;;;;;4912784;29;20045;-79
2021/09/10 17:07:09;;;;;;;4.28;2.05;;;20.10;99.90;;;;;;4902004;29;20036;-78
2021/09/10 17:09:35;;;;;;;5.43;1.92;;;20.00;99.90;;;;;;4892845;29;20032;-77